sensor_id;sensor_type;location;lat;lon;timestamp;pressure;altitude;pressure_sealevel;temperature;humidity
60479;BME280;46321;48.398;11.754;2023-06-10T00:00:12;96196.94;;;16.67;66.28
60479;BME280;46321;48.398;11.754;2023-06-10T00:02:40;96198.13;;;16.71;66.49
60479;BME280;46321;48.398;11.754;2023-06-10T00:05:05;96193.38;;;16.74;66.04
60479;BME280;46321;48.398;11.754;2023-06-10T00:07:30;96196.13;;;16.67;66.62
60479;BME280;46321;48.398;11.754;2023-06-10T00:09:56;96196.34;;;16.65;66.62
60479;BME280;46321;48.398;11.754;2023-06-10T00:12:22;96194.88;;;16.51;67.04
60479;BME280;46321;48.398;11.754;2023-06-10T00:14:47;96193.53;;;16.60;67.14
60479;BME280;46321;48.398;11.754;2023-06-10T00:17:15;96199.47;;;16.62;67.04
60479;BME280;46321;48.398;11.754;2023-06-10T00:19:40;96199.91;;;16.59;67.31
60479;BME280;46321;48.398;11.754;2023-06-10T00:22:06;96195.22;;;16.54;67.47
60479;BME280;46321;48.398;11.754;2023-06-10T00:24:31;96199.31;;;16.57;67.45
60479;BME280;46321;48.398;11.754;2023-06-10T00:26:56;96200.56;;;16.54;67.60
60479;BME280;46321;48.398;11.754;2023-06-10T00:29:21;96198.34;;;16.51;67.41
60479;BME280;46321;48.398;11.754;2023-06-10T00:31:47;96205.31;;;16.52;67.51
60479;BME280;46321;48.398;11.754;2023-06-10T00:34:12;96197.59;;;16.44;68.15
60479;BME280;46321;48.398;11.754;2023-06-10T00:36:37;96195.53;;;16.46;67.72
60479;BME280;46321;48.398;11.754;2023-06-10T00:39:03;96192.25;;;16.44;68.45
60479;BME280;46321;48.398;11.754;2023-06-10T00:41:29;96190.53;;;16.50;68.20
60479;BME280;46321;48.398;11.754;2023-06-10T00:43:55;96191.78;;;16.28;69.27
60479;BME280;46321;48.398;11.754;2023-06-10T00:46:21;96188.53;;;16.26;69.11
60479;BME280;46321;48.398;11.754;2023-06-10T00:48:48;96191.13;;;16.33;68.85
60479;BME280;46321;48.398;11.754;2023-06-10T00:51:15;96186.34;;;16.16;69.80
60479;BME280;46321;48.398;11.754;2023-06-10T00:53:41;96185.44;;;16.22;69.49
60479;BME280;46321;48.398;11.754;2023-06-10T00:56:07;96192.75;;;16.34;69.16
60479;BME280;46321;48.398;11.754;2023-06-10T00:58:32;96187.97;;;16.17;69.99
60479;BME280;46321;48.398;11.754;2023-06-10T01:00:58;96189.59;;;16.18;69.39
60479;BME280;46321;48.398;11.754;2023-06-10T01:03:23;96182.69;;;16.10;70.04
60479;BME280;46321;48.398;11.754;2023-06-10T01:05:53;96180.44;;;16.07;70.56
60479;BME280;46321;48.398;11.754;2023-06-10T01:08:35;96177.13;;;16.12;70.18
60479;BME280;46321;48.398;11.754;2023-06-10T01:11:07;96182.03;;;16.15;70.04
60479;BME280;46321;48.398;11.754;2023-06-10T01:13:35;96183.28;;;16.12;69.97
60479;BME280;46321;48.398;11.754;2023-06-10T01:16:01;96180.22;;;16.09;69.85
60479;BME280;46321;48.398;11.754;2023-06-10T01:18:30;96186.00;;;16.06;70.78
60479;BME280;46321;48.398;11.754;2023-06-10T01:20:55;96187.25;;;16.03;70.65
60479;BME280;46321;48.398;11.754;2023-06-10T01:23:21;96190.56;;;15.98;71.15
60479;BME280;46321;48.398;11.754;2023-06-10T01:25:54;96184.38;;;16.05;70.31
60479;BME280;46321;48.398;11.754;2023-06-10T01:33:43;96189.34;;;15.94;70.86
60479;BME280;46321;48.398;11.754;2023-06-10T01:36:09;96191.44;;;15.92;70.94
60479;BME280;46321;48.398;11.754;2023-06-10T01:38:39;96190.47;;;15.79;72.05
60479;BME280;46321;48.398;11.754;2023-06-10T01:41:06;96190.31;;;15.74;72.05
60479;BME280;46321;48.398;11.754;2023-06-10T01:43:33;96187.66;;;15.74;71.82
60479;BME280;46321;48.398;11.754;2023-06-10T01:45:59;96189.88;;;15.77;71.74
60479;BME280;46321;48.398;11.754;2023-06-10T01:48:25;96182.91;;;15.76;71.56
60479;BME280;46321;48.398;11.754;2023-06-10T01:50:50;96195.19;;;15.77;72.18
60479;BME280;46321;48.398;11.754;2023-06-10T01:53:15;96193.38;;;15.78;71.42
60479;BME280;46321;48.398;11.754;2023-06-10T01:55:40;96200.13;;;15.80;72.29
60479;BME280;46321;48.398;11.754;2023-06-10T01:58:06;96196.91;;;15.72;72.25
60479;BME280;46321;48.398;11.754;2023-06-10T02:00:31;96196.06;;;15.71;72.81
60479;BME280;46321;48.398;11.754;2023-06-10T02:02:56;96196.06;;;15.71;72.50
60479;BME280;46321;48.398;11.754;2023-06-10T02:05:21;96199.59;;;15.65;72.67
60479;BME280;46321;48.398;11.754;2023-06-10T02:07:47;96196.28;;;15.70;72.58
60479;BME280;46321;48.398;11.754;2023-06-10T02:10:13;96205.59;;;15.60;72.76
60479;BME280;46321;48.398;11.754;2023-06-10T02:12:38;96198.94;;;15.37;74.50
60479;BME280;46321;48.398;11.754;2023-06-10T02:15:03;96191.09;;;15.49;73.81
60479;BME280;46321;48.398;11.754;2023-06-10T02:17:29;96198.44;;;15.54;73.53
60479;BME280;46321;48.398;11.754;2023-06-10T02:19:55;96201.13;;;15.54;73.50
60479;BME280;46321;48.398;11.754;2023-06-10T02:22:23;96205.84;;;15.52;73.46
60479;BME280;46321;48.398;11.754;2023-06-10T02:24:49;96200.50;;;15.52;73.91
60479;BME280;46321;48.398;11.754;2023-06-10T02:27:15;96200.69;;;15.50;73.50
60479;BME280;46321;48.398;11.754;2023-06-10T02:29:41;96197.88;;;15.45;73.95
60479;BME280;46321;48.398;11.754;2023-06-10T02:32:07;96208.66;;;15.18;74.80
60479;BME280;46321;48.398;11.754;2023-06-10T02:34:32;96203.94;;;15.20;74.69
60479;BME280;46321;48.398;11.754;2023-06-10T02:36:58;96204.16;;;15.18;74.55
60479;BME280;46321;48.398;11.754;2023-06-10T02:39:24;96211.09;;;15.26;74.58
60479;BME280;46321;48.398;11.754;2023-06-10T02:41:49;96201.63;;;15.30;74.09
60479;BME280;46321;48.398;11.754;2023-06-10T02:44:15;96203.06;;;15.33;74.08
60479;BME280;46321;48.398;11.754;2023-06-10T02:46:40;96205.31;;;15.36;74.17
60479;BME280;46321;48.398;11.754;2023-06-10T02:49:05;96197.13;;;15.31;74.46
60479;BME280;46321;48.398;11.754;2023-06-10T02:51:33;96209.47;;;15.25;74.75
60479;BME280;46321;48.398;11.754;2023-06-10T02:53:59;96203.34;;;15.18;75.20
60479;BME280;46321;48.398;11.754;2023-06-10T02:56:26;96210.09;;;15.20;74.96
60479;BME280;46321;48.398;11.754;2023-06-10T02:58:52;96204.22;;;15.05;75.43
60479;BME280;46321;48.398;11.754;2023-06-10T03:01:18;96214.19;;;15.23;75.37
60479;BME280;46321;48.398;11.754;2023-06-10T03:03:45;96212.75;;;15.27;74.77
60479;BME280;46321;48.398;11.754;2023-06-10T03:06:12;96208.25;;;15.21;74.48
60479;BME280;46321;48.398;11.754;2023-06-10T03:08:40;96208.25;;;15.21;74.59
60479;BME280;46321;48.398;11.754;2023-06-10T03:11:06;96214.22;;;15.16;74.87
60479;BME280;46321;48.398;11.754;2023-06-10T03:13:32;96214.06;;;14.97;76.20
60479;BME280;46321;48.398;11.754;2023-06-10T03:15:58;96209.16;;;14.94;76.31
60479;BME280;46321;48.398;11.754;2023-06-10T03:18:28;96215.91;;;14.97;76.35
60479;BME280;46321;48.398;11.754;2023-06-10T03:20:55;96219.81;;;14.87;76.61
60479;BME280;46321;48.398;11.754;2023-06-10T03:23:21;96222.09;;;14.91;76.31
60479;BME280;46321;48.398;11.754;2023-06-10T03:25:46;96216.13;;;14.95;76.75
60479;BME280;46321;48.398;11.754;2023-06-10T03:28:12;96216.53;;;14.99;76.14
60479;BME280;46321;48.398;11.754;2023-06-10T03:30:38;96210.78;;;15.02;76.07
60479;BME280;46321;48.398;11.754;2023-06-10T03:33:04;96223.06;;;15.03;76.59
60479;BME280;46321;48.398;11.754;2023-06-10T03:35:29;96231.91;;;14.97;76.77
60479;BME280;46321;48.398;11.754;2023-06-10T03:37:55;96229.25;;;14.97;76.54
60479;BME280;46321;48.398;11.754;2023-06-10T03:40:21;96231.50;;;15.00;76.37
60479;BME280;46321;48.398;11.754;2023-06-10T03:42:47;96219.19;;;14.99;76.39
60479;BME280;46321;48.398;11.754;2023-06-10T03:45:13;96234.34;;;15.05;76.73
60479;BME280;46321;48.398;11.754;2023-06-10T03:47:39;96241.72;;;15.03;76.00
60479;BME280;46321;48.398;11.754;2023-06-10T03:50:07;96237.44;;;15.02;76.06
60479;BME280;46321;48.398;11.754;2023-06-10T03:52:33;96224.94;;;14.96;76.17
60479;BME280;46321;48.398;11.754;2023-06-10T03:54:59;96229.47;;;14.95;75.91
60479;BME280;46321;48.398;11.754;2023-06-10T03:57:24;96234.97;;;15.07;75.64
60479;BME280;46321;48.398;11.754;2023-06-10T03:59:50;96244.38;;;15.03;75.90
60479;BME280;46321;48.398;11.754;2023-06-10T04:02:16;96239.88;;;15.04;75.47
60479;BME280;46321;48.398;11.754;2023-06-10T04:04:41;96242.34;;;15.12;75.47
60479;BME280;46321;48.398;11.754;2023-06-10T04:07:07;96244.78;;;15.14;75.63
60479;BME280;46321;48.398;11.754;2023-06-10T04:09:34;96249.28;;;15.13;76.10
60479;BME280;46321;48.398;11.754;2023-06-10T04:11:59;96251.75;;;15.08;75.70
60479;BME280;46321;48.398;11.754;2023-06-10T04:14:24;96250.75;;;15.09;76.26
60479;BME280;46321;48.398;11.754;2023-06-10T04:16:50;96244.94;;;15.19;75.30
60479;BME280;46321;48.398;11.754;2023-06-10T04:19:18;96264.00;;;15.29;75.63
60479;BME280;46321;48.398;11.754;2023-06-10T04:21:45;96249.63;;;15.30;75.37
60479;BME280;46321;48.398;11.754;2023-06-10T04:24:10;96253.69;;;15.40;75.59
60479;BME280;46321;48.398;11.754;2023-06-10T04:26:35;96256.53;;;15.52;75.30
60479;BME280;46321;48.398;11.754;2023-06-10T04:29:01;96260.19;;;15.57;74.57
60479;BME280;46321;48.398;11.754;2023-06-10T04:31:26;96260.94;;;15.72;74.69
60479;BME280;46321;48.398;11.754;2023-06-10T04:33:51;96261.31;;;15.75;74.29
60479;BME280;46321;48.398;11.754;2023-06-10T04:36:16;96265.31;;;15.91;74.18
60479;BME280;46321;48.398;11.754;2023-06-10T04:38:42;96268.78;;;15.99;73.94
60479;BME280;46321;48.398;11.754;2023-06-10T04:41:07;96264.88;;;16.01;74.78
60479;BME280;46321;48.398;11.754;2023-06-10T04:43:32;96268.13;;;16.10;74.16
60479;BME280;46321;48.398;11.754;2023-06-10T04:45:58;96266.59;;;16.21;73.37
60479;BME280;46321;48.398;11.754;2023-06-10T04:48:23;96270.19;;;16.34;72.98
60479;BME280;46321;48.398;11.754;2023-06-10T04:50:49;96268.66;;;16.45;73.05
60479;BME280;46321;48.398;11.754;2023-06-10T04:53:15;96282.72;;;16.59;72.35
60479;BME280;46321;48.398;11.754;2023-06-10T04:55:40;96270.16;;;16.66;71.98
60479;BME280;46321;48.398;11.754;2023-06-10T04:58:06;96278.63;;;16.82;71.92
60479;BME280;46321;48.398;11.754;2023-06-10T05:00:31;96276.56;;;16.84;71.79
60479;BME280;46321;48.398;11.754;2023-06-10T05:02:56;96286.66;;;17.01;71.15
60479;BME280;46321;48.398;11.754;2023-06-10T05:05:21;96275.97;;;17.01;71.46
60479;BME280;46321;48.398;11.754;2023-06-10T05:07:47;96275.38;;;16.99;71.00
60479;BME280;46321;48.398;11.754;2023-06-10T05:10:12;96277.91;;;16.93;71.04
60479;BME280;46321;48.398;11.754;2023-06-10T05:12:38;96283.78;;;17.02;71.23
60479;BME280;46321;48.398;11.754;2023-06-10T05:15:05;96281.09;;;17.02;70.81
60479;BME280;46321;48.398;11.754;2023-06-10T05:17:30;96279.63;;;17.07;70.71
60479;BME280;46321;48.398;11.754;2023-06-10T05:19:56;96274.63;;;17.10;70.66
60479;BME280;46321;48.398;11.754;2023-06-10T05:22:21;96287.03;;;17.04;70.35
60479;BME280;46321;48.398;11.754;2023-06-10T05:24:49;96290.09;;;17.08;70.98
60479;BME280;46321;48.398;11.754;2023-06-10T05:27:14;96291.59;;;17.23;70.74
60479;BME280;46321;48.398;11.754;2023-06-10T05:29:39;96294.25;;;17.23;70.58
60479;BME280;46321;48.398;11.754;2023-06-10T05:32:26;96283.41;;;17.36;70.45
60479;BME280;46321;48.398;11.754;2023-06-10T05:34:51;96292.41;;;17.42;70.14
60479;BME280;46321;48.398;11.754;2023-06-10T05:37:16;96291.25;;;17.38;70.05
60479;BME280;46321;48.398;11.754;2023-06-10T05:39:42;96295.91;;;17.24;69.79
60479;BME280;46321;48.398;11.754;2023-06-10T05:42:07;96302.34;;;17.16;69.80
60479;BME280;46321;48.398;11.754;2023-06-10T05:44:33;96294.50;;;17.21;69.56
60479;BME280;46321;48.398;11.754;2023-06-10T05:47:02;96294.25;;;17.04;70.32
60479;BME280;46321;48.398;11.754;2023-06-10T05:49:27;96287.72;;;17.00;70.23
60479;BME280;46321;48.398;11.754;2023-06-10T05:51:53;96292.75;;;17.08;70.28
60479;BME280;46321;48.398;11.754;2023-06-10T05:54:18;96284.56;;;17.03;70.31
60479;BME280;46321;48.398;11.754;2023-06-10T05:56:44;96285.75;;;17.07;70.30
60479;BME280;46321;48.398;11.754;2023-06-10T05:59:09;96291.91;;;17.33;70.15
60479;BME280;46321;48.398;11.754;2023-06-10T06:01:34;96293.16;;;17.49;69.23
60479;BME280;46321;48.398;11.754;2023-06-10T06:04:00;96288.34;;;17.70;68.60
60479;BME280;46321;48.398;11.754;2023-06-10T06:06:25;96294.94;;;17.87;67.89
60479;BME280;46321;48.398;11.754;2023-06-10T06:08:50;96296.28;;;18.08;68.33
60479;BME280;46321;48.398;11.754;2023-06-10T06:11:16;96292.34;;;18.11;67.77
60479;BME280;46321;48.398;11.754;2023-06-10T06:13:41;96289.03;;;18.27;67.78
60479;BME280;46321;48.398;11.754;2023-06-10T06:16:07;96291.19;;;18.49;66.81
60479;BME280;46321;48.398;11.754;2023-06-10T06:18:32;96293.41;;;18.64;66.08
60479;BME280;46321;48.398;11.754;2023-06-10T06:20:58;96287.91;;;18.71;66.30
60479;BME280;46321;48.398;11.754;2023-06-10T06:23:23;96293.06;;;18.85;65.75
60479;BME280;46321;48.398;11.754;2023-06-10T06:25:48;96295.13;;;19.07;64.63
60479;BME280;46321;48.398;11.754;2023-06-10T06:28:13;96299.34;;;19.27;63.91
60479;BME280;46321;48.398;11.754;2023-06-10T06:30:39;96292.91;;;19.40;63.02
60479;BME280;46321;48.398;11.754;2023-06-10T06:33:04;96288.13;;;19.42;63.08
60479;BME280;46321;48.398;11.754;2023-06-10T06:35:33;96293.94;;;19.51;62.84
60479;BME280;46321;48.398;11.754;2023-06-10T06:37:59;96290.03;;;19.59;62.74
60479;BME280;46321;48.398;11.754;2023-06-10T06:40:24;96288.75;;;19.61;63.18
60479;BME280;46321;48.398;11.754;2023-06-10T06:42:49;96292.41;;;19.84;62.25
60479;BME280;46321;48.398;11.754;2023-06-10T06:45:15;96289.63;;;20.08;61.53
60479;BME280;46321;48.398;11.754;2023-06-10T06:47:40;96294.63;;;20.17;61.37
60479;BME280;46321;48.398;11.754;2023-06-10T06:50:05;96287.47;;;20.22;61.91
60479;BME280;46321;48.398;11.754;2023-06-10T06:52:31;96286.81;;;20.32;61.79
60479;BME280;46321;48.398;11.754;2023-06-10T06:54:56;96293.69;;;20.40;60.42
60479;BME280;46321;48.398;11.754;2023-06-10T06:57:21;96291.06;;;20.45;59.56
60479;BME280;46321;48.398;11.754;2023-06-10T06:59:48;96291.25;;;20.56;60.17
60479;BME280;46321;48.398;11.754;2023-06-10T07:02:13;96300.66;;;20.24;60.18
60479;BME280;46321;48.398;11.754;2023-06-10T07:04:38;96299.63;;;20.42;60.82
60479;BME280;46321;48.398;11.754;2023-06-10T07:07:07;96301.41;;;20.54;60.54
60479;BME280;46321;48.398;11.754;2023-06-10T07:09:32;96291.69;;;20.70;59.91
60479;BME280;46321;48.398;11.754;2023-06-10T07:11:57;96298.94;;;20.87;60.03
60479;BME280;46321;48.398;11.754;2023-06-10T07:14:22;96298.47;;;20.73;59.54
60479;BME280;46321;48.398;11.754;2023-06-10T07:16:48;96294.69;;;20.91;58.95
60479;BME280;46321;48.398;11.754;2023-06-10T07:19:14;96301.41;;;20.71;59.37
60479;BME280;46321;48.398;11.754;2023-06-10T07:21:40;96292.59;;;20.76;58.29
60479;BME280;46321;48.398;11.754;2023-06-10T07:24:05;96299.47;;;21.01;58.79
60479;BME280;46321;48.398;11.754;2023-06-10T07:26:31;96291.63;;;21.39;58.43
60479;BME280;46321;48.398;11.754;2023-06-10T07:28:56;96296.09;;;21.33;58.14
60479;BME280;46321;48.398;11.754;2023-06-10T07:31:21;96300.19;;;21.58;57.87
60479;BME280;46321;48.398;11.754;2023-06-10T07:33:47;96304.09;;;21.73;56.42
60479;BME280;46321;48.398;11.754;2023-06-10T07:36:12;96304.56;;;21.87;56.47
60479;BME280;46321;48.398;11.754;2023-06-10T07:38:37;96305.28;;;22.05;57.12
60479;BME280;46321;48.398;11.754;2023-06-10T07:41:02;96307.59;;;21.91;56.35
60479;BME280;46321;48.398;11.754;2023-06-10T07:43:28;96314.38;;;21.99;55.42
60479;BME280;46321;48.398;11.754;2023-06-10T07:45:53;96311.59;;;21.88;55.34
60479;BME280;46321;48.398;11.754;2023-06-10T07:48:18;96310.88;;;21.98;55.33
60479;BME280;46321;48.398;11.754;2023-06-10T07:50:44;96314.84;;;22.18;55.74
60479;BME280;46321;48.398;11.754;2023-06-10T07:53:09;96308.78;;;22.66;54.97
60479;BME280;46321;48.398;11.754;2023-06-10T07:55:35;96310.84;;;22.53;53.84
60479;BME280;46321;48.398;11.754;2023-06-10T07:58:00;96310.53;;;22.50;53.28
60479;BME280;46321;48.398;11.754;2023-06-10T08:00:25;96315.25;;;22.32;54.07
60479;BME280;46321;48.398;11.754;2023-06-10T08:02:50;96307.41;;;22.63;53.78
60479;BME280;46321;48.398;11.754;2023-06-10T08:05:17;96308.34;;;23.18;53.75
60479;BME280;46321;48.398;11.754;2023-06-10T08:07:42;96311.22;;;23.49;53.66
60479;BME280;46321;48.398;11.754;2023-06-10T08:10:08;96308.97;;;23.36;51.96
60479;BME280;46321;48.398;11.754;2023-06-10T08:12:34;96306.47;;;23.83;52.37
60479;BME280;46321;48.398;11.754;2023-06-10T08:14:59;96305.38;;;23.84;52.11
60479;BME280;46321;48.398;11.754;2023-06-10T08:17:25;96312.69;;;23.88;52.01
60479;BME280;46321;48.398;11.754;2023-06-10T08:19:50;96304.38;;;24.16;49.83
60479;BME280;46321;48.398;11.754;2023-06-10T08:22:15;96309.19;;;23.93;50.84
60479;BME280;46321;48.398;11.754;2023-06-10T08:24:41;96308.69;;;24.01;51.08
60479;BME280;46321;48.398;11.754;2023-06-10T08:27:06;96307.94;;;24.32;49.25
60479;BME280;46321;48.398;11.754;2023-06-10T08:29:31;96316.06;;;24.48;49.75
60479;BME280;46321;48.398;11.754;2023-06-10T08:31:57;96312.28;;;24.65;51.23
60479;BME280;46321;48.398;11.754;2023-06-10T08:34:22;96312.47;;;24.06;51.03
60479;BME280;46321;48.398;11.754;2023-06-10T08:36:48;96307.13;;;24.47;49.37
60479;BME280;46321;48.398;11.754;2023-06-10T08:39:18;96306.28;;;25.20;48.66
60479;BME280;46321;48.398;11.754;2023-06-10T08:44:35;96301.66;;;25.21;47.53
60479;BME280;46321;48.398;11.754;2023-06-10T08:47:06;96306.44;;;25.55;46.22
60479;BME280;46321;48.398;11.754;2023-06-10T08:49:38;96306.84;;;25.01;46.63
60479;BME280;46321;48.398;11.754;2023-06-10T08:52:05;96304.13;;;25.17;46.91
60479;BME280;46321;48.398;11.754;2023-06-10T08:54:33;96310.09;;;25.03;46.54
60479;BME280;46321;48.398;11.754;2023-06-10T08:57:04;96304.97;;;24.86;45.77
60479;BME280;46321;48.398;11.754;2023-06-10T08:59:31;96309.28;;;24.72;47.13
60479;BME280;46321;48.398;11.754;2023-06-10T09:01:56;96305.50;;;24.83;47.08
60479;BME280;46321;48.398;11.754;2023-06-10T09:04:23;96304.16;;;24.86;46.42
60479;BME280;46321;48.398;11.754;2023-06-10T09:06:49;96302.25;;;25.02;46.93
60479;BME280;46321;48.398;11.754;2023-06-10T09:09:15;96306.03;;;24.90;47.02
60479;BME280;46321;48.398;11.754;2023-06-10T09:11:42;96308.72;;;24.22;48.42
60479;BME280;46321;48.398;11.754;2023-06-10T09:14:07;96300.03;;;24.15;48.13
60479;BME280;46321;48.398;11.754;2023-06-10T09:16:33;96299.56;;;24.39;47.39
60479;BME280;46321;48.398;11.754;2023-06-10T09:18:58;96303.63;;;24.73;46.90
60479;BME280;46321;48.398;11.754;2023-06-10T09:21:24;96295.50;;;25.04;49.04
60479;BME280;46321;48.398;11.754;2023-06-10T09:23:51;96296.75;;;25.33;46.86
60479;BME280;46321;48.398;11.754;2023-06-10T09:26:17;96294.25;;;26.09;46.78
60479;BME280;46321;48.398;11.754;2023-06-10T09:28:44;96288.06;;;26.38;43.31
60479;BME280;46321;48.398;11.754;2023-06-10T09:31:11;96286.34;;;25.56;42.61
60479;BME280;46321;48.398;11.754;2023-06-10T09:33:38;96295.25;;;24.59;45.41
60479;BME280;46321;48.398;11.754;2023-06-10T09:36:04;96300.00;;;25.35;44.61
60479;BME280;46321;48.398;11.754;2023-06-10T09:38:32;96297.91;;;24.85;45.04
60479;BME280;46321;48.398;11.754;2023-06-10T09:40:57;96298.22;;;24.57;46.17
60479;BME280;46321;48.398;11.754;2023-06-10T09:43:22;96301.41;;;25.17;45.57
60479;BME280;46321;48.398;11.754;2023-06-10T09:45:49;96303.88;;;25.08;45.03
60479;BME280;46321;48.398;11.754;2023-06-10T09:48:15;96303.00;;;25.23;44.70
60479;BME280;46321;48.398;11.754;2023-06-10T09:50:44;96300.88;;;24.94;45.34
60479;BME280;46321;48.398;11.754;2023-06-10T09:53:10;96294.66;;;24.83;46.31
60479;BME280;46321;48.398;11.754;2023-06-10T09:55:39;96295.78;;;24.82;44.96
60479;BME280;46321;48.398;11.754;2023-06-10T09:58:05;96299.75;;;25.21;46.41
60479;BME280;46321;48.398;11.754;2023-06-10T10:00:34;96301.13;;;25.29;44.02
60479;BME280;46321;48.398;11.754;2023-06-10T10:03:00;96303.63;;;25.04;44.47
60479;BME280;46321;48.398;11.754;2023-06-10T10:05:26;96304.97;;;24.34;45.41
60479;BME280;46321;48.398;11.754;2023-06-10T10:07:52;96303.56;;;24.21;45.95
60479;BME280;46321;48.398;11.754;2023-06-10T10:10:19;96312.81;;;24.30;46.23
60479;BME280;46321;48.398;11.754;2023-06-10T10:12:51;96309.81;;;24.21;45.35
60479;BME280;46321;48.398;11.754;2023-06-10T10:15:19;96304.34;;;24.00;46.00
60479;BME280;46321;48.398;11.754;2023-06-10T10:17:52;96309.53;;;23.43;47.11
60479;BME280;46321;48.398;11.754;2023-06-10T10:20:24;96311.34;;;23.86;46.67
60479;BME280;46321;48.398;11.754;2023-06-10T10:22:52;96313.53;;;24.05;45.76
60479;BME280;46321;48.398;11.754;2023-06-10T10:25:23;96308.69;;;24.12;45.54
60479;BME280;46321;48.398;11.754;2023-06-10T10:27:55;96307.16;;;24.53;45.51
60479;BME280;46321;48.398;11.754;2023-06-10T10:30:22;96304.66;;;25.19;46.44
60479;BME280;46321;48.398;11.754;2023-06-10T10:32:57;96302.31;;;25.63;43.22
60479;BME280;46321;48.398;11.754;2023-06-10T10:35:30;96303.72;;;25.55;43.86
60479;BME280;46321;48.398;11.754;2023-06-10T10:37:55;96305.19;;;25.93;42.88
60479;BME280;46321;48.398;11.754;2023-06-10T10:40:24;96304.88;;;26.45;43.54
60479;BME280;46321;48.398;11.754;2023-06-10T10:42:51;96308.94;;;26.02;44.42
60479;BME280;46321;48.398;11.754;2023-06-10T10:45:17;96313.69;;;26.21;43.33
60479;BME280;46321;48.398;11.754;2023-06-10T10:47:44;96306.78;;;25.99;43.24
60479;BME280;46321;48.398;11.754;2023-06-10T10:50:14;96305.72;;;25.95;44.00
60479;BME280;46321;48.398;11.754;2023-06-10T10:53:08;96312.16;;;26.10;44.57
60479;BME280;46321;48.398;11.754;2023-06-10T10:55:33;96308.06;;;26.52;44.31
60479;BME280;46321;48.398;11.754;2023-06-10T10:58:06;96308.59;;;26.55;44.13
60479;BME280;46321;48.398;11.754;2023-06-10T11:00:32;96300.88;;;26.32;43.40
60479;BME280;46321;48.398;11.754;2023-06-10T11:03:00;96306.41;;;26.57;42.97
60479;BME280;46321;48.398;11.754;2023-06-10T11:05:37;96298.41;;;26.71;42.46
60479;BME280;46321;48.398;11.754;2023-06-10T11:08:03;96301.69;;;26.97;42.85
60479;BME280;46321;48.398;11.754;2023-06-10T11:10:33;96295.44;;;26.72;42.28
60479;BME280;46321;48.398;11.754;2023-06-10T11:12:59;96288.84;;;26.79;42.11
60479;BME280;46321;48.398;11.754;2023-06-10T11:15:27;96292.84;;;26.57;42.66
60479;BME280;46321;48.398;11.754;2023-06-10T11:20:51;96297.28;;;26.77;42.11
60479;BME280;46321;48.398;11.754;2023-06-10T11:28:41;96297.63;;;26.70;43.17
60479;BME280;46321;48.398;11.754;2023-06-10T11:31:07;96293.47;;;26.78;42.73
60479;BME280;46321;48.398;11.754;2023-06-10T11:33:32;96294.34;;;26.68;42.01
60479;BME280;46321;48.398;11.754;2023-06-10T11:35:58;96291.88;;;26.77;44.02
60479;BME280;46321;48.398;11.754;2023-06-10T11:38:24;96288.53;;;26.50;44.06
60479;BME280;46321;48.398;11.754;2023-06-10T11:40:50;96284.13;;;26.60;41.79
60479;BME280;46321;48.398;11.754;2023-06-10T11:43:19;96276.75;;;26.66;43.02
60479;BME280;46321;48.398;11.754;2023-06-10T11:45:45;96284.97;;;26.15;43.53
60479;BME280;46321;48.398;11.754;2023-06-10T11:48:12;96283.06;;;26.21;43.09
60479;BME280;46321;48.398;11.754;2023-06-10T11:50:38;96284.94;;;26.25;43.34
60479;BME280;46321;48.398;11.754;2023-06-10T11:53:03;96280.47;;;26.45;43.32
60479;BME280;46321;48.398;11.754;2023-06-10T11:55:50;96279.28;;;26.16;43.63
60479;BME280;46321;48.398;11.754;2023-06-10T11:58:19;96284.53;;;26.02;45.62
60479;BME280;46321;48.398;11.754;2023-06-10T12:00:50;96285.09;;;25.99;43.20
60479;BME280;46321;48.398;11.754;2023-06-10T12:03:16;96275.16;;;25.12;44.28
60479;BME280;46321;48.398;11.754;2023-06-10T12:08:23;96280.03;;;25.10;44.70
60479;BME280;46321;48.398;11.754;2023-06-10T12:10:49;96280.03;;;25.15;45.32
60479;BME280;46321;48.398;11.754;2023-06-10T12:13:15;96282.78;;;24.84;45.72
60479;BME280;46321;48.398;11.754;2023-06-10T12:15:40;96290.38;;;24.45;46.91
60479;BME280;46321;48.398;11.754;2023-06-10T12:18:05;96297.59;;;23.98;47.19
60479;BME280;46321;48.398;11.754;2023-06-10T12:20:32;96286.78;;;23.28;49.37
60479;BME280;46321;48.398;11.754;2023-06-10T12:23:08;96287.09;;;23.32;49.62
60479;BME280;46321;48.398;11.754;2023-06-10T12:25:34;96291.03;;;23.14;50.80
60479;BME280;46321;48.398;11.754;2023-06-10T12:28:02;96291.13;;;23.29;50.77
60479;BME280;46321;48.398;11.754;2023-06-10T12:30:27;96284.59;;;23.20;51.01
60479;BME280;46321;48.398;11.754;2023-06-10T12:32:53;96289.66;;;23.54;50.51
60479;BME280;46321;48.398;11.754;2023-06-10T12:35:23;96282.69;;;23.74;50.70
60479;BME280;46321;48.398;11.754;2023-06-10T12:38:09;96278.91;;;23.81;50.32
60479;BME280;46321;48.398;11.754;2023-06-10T12:40:38;96276.78;;;23.98;50.15
60479;BME280;46321;48.398;11.754;2023-06-10T12:43:05;96271.97;;;24.27;50.43
60479;BME280;46321;48.398;11.754;2023-06-10T12:45:33;96273.56;;;24.01;50.03
60479;BME280;46321;48.398;11.754;2023-06-10T12:48:09;96271.91;;;24.11;49.59
60479;BME280;46321;48.398;11.754;2023-06-10T12:50:36;96270.84;;;24.12;49.18
60479;BME280;46321;48.398;11.754;2023-06-10T12:53:05;96271.66;;;24.18;50.01
60479;BME280;46321;48.398;11.754;2023-06-10T12:55:31;96260.06;;;24.54;50.23
60479;BME280;46321;48.398;11.754;2023-06-10T12:57:58;96263.84;;;24.42;49.65
60479;BME280;46321;48.398;11.754;2023-06-10T13:00:24;96253.28;;;24.77;48.79
60479;BME280;46321;48.398;11.754;2023-06-10T13:02:59;96264.91;;;24.88;47.73
60479;BME280;46321;48.398;11.754;2023-06-10T13:05:26;96252.72;;;25.01;48.26